Time;durP1;ratioP1;P1;durP2;ratioP2;P2;SDS_P1;SDS_P2;PMS_P1;PMS_P2;Temp;Humidity;BMP_temperature;BMP_pressure;BME280_temperature;BME280_humidity;BME280_pressure;Samples;Min_cycle;Max_cycle;Signal;HPM_P1;HPM_P2
2022/09/02 00:01:54;;;;;;;3.38;3.17;;;11.80;99.90;;;;;;4856647;29;20060;-84
2022/09/02 00:04:24;;;;;;;4.97;4.68;;;11.70;99.90;;;;;;4863802;29;20060;-84
2022/09/02 00:06:53;;;;;;;5.40;4.57;;;11.70;99.90;;;;;;4846809;29;20053;-84
2022/09/02 00:09:24;;;;;;;6.20;4.20;;;11.80;99.90;;;;;;4855868;29;20050;-85
2022/09/02 00:11:53;;;;;;;6.18;4.15;;;11.80;99.90;;;;;;4851662;29;20538;-84
2022/09/02 00:14:28;;;;;;;5.05;4.28;;;11.70;99.90;;;;;;4864888;29;20045;-84
2022/09/02 00:16:59;;;;;;;4.57;3.33;;;11.70;99.90;;;;;;4896099;29;20053;-84
2022/09/02 00:19:28;;;;;;;;;;;11.60;99.90;;;;;;4896034;29;20402;-84
2022/09/02 00:21:59;;;;;;;4.38;4.07;;;11.50;99.90;;;;;;4869800;29;20293;-84
2022/09/02 00:24:27;;;;;;;4.53;4.13;;;11.50;99.90;;;;;;4859625;29;20041;-84
2022/09/02 00:26:55;;;;;;;4.45;4.15;;;11.50;99.90;;;;;;4878107;29;20053;-84
2022/09/02 00:29:25;;;;;;;3.97;3.58;;;11.60;99.90;;;;;;4854174;29;20049;-84
2022/09/02 00:31:53;;;;;;;4.60;4.30;;;11.60;99.90;;;;;;4842488;29;20041;-84
2022/09/02 00:34:21;;;;;;;4.53;3.97;;;11.60;99.90;;;;;;4842679;29;20058;-84
2022/09/02 00:36:49;;;;;;;4.00;3.70;;;11.60;99.90;;;;;;4857880;29;20049;-85
2022/09/02 00:39:18;;;;;;;5.53;3.95;;;11.60;99.90;;;;;;4831413;29;20097;-85
2022/09/02 00:41:46;;;;;;;7.25;4.50;;;11.60;99.90;;;;;;4839598;29;20052;-84
2022/09/02 00:44:16;;;;;;;4.35;4.05;;;11.50;99.90;;;;;;4858873;29;20085;-84
2022/09/02 00:46:44;;;;;;;4.03;3.72;;;11.50;99.90;;;;;;4842719;29;20057;-84
2022/09/02 00:49:15;;;;;;;4.75;4.25;;;11.50;99.90;;;;;;4841211;29;20058;-84
2022/09/02 00:51:51;;;;;;;5.00;4.55;;;11.50;99.90;;;;;;4835843;29;20057;-84
2022/09/02 00:54:23;;;;;;;4.03;3.70;;;11.40;99.90;;;;;;4841243;29;20062;-84
2022/09/02 00:56:52;;;;;;;4.50;4.20;;;11.40;99.90;;;;;;4875546;29;20049;-84
2022/09/02 00:59:33;;;;;;;4.20;3.90;;;11.40;99.90;;;;;;4860483;29;20041;-84
2022/09/02 01:02:02;;;;;;;8.63;5.65;;;11.30;99.90;;;;;;4851760;29;20061;-84
2022/09/02 01:04:29;;;;;;;3.83;3.53;;;11.30;99.90;;;;;;4859899;29;20061;-84
2022/09/02 01:06:57;;;;;;;4.70;4.10;;;11.30;99.90;;;;;;4841582;29;20429;-84
2022/09/02 01:09:25;;;;;;;4.18;3.65;;;11.20;99.90;;;;;;4839686;29;20415;-84
2022/09/02 01:11:53;;;;;;;3.85;3.55;;;11.20;99.90;;;;;;4866506;29;20526;-85
2022/09/02 01:14:22;;;;;;;3.92;3.63;;;11.10;99.90;;;;;;4863480;29;20045;-84
2022/09/02 01:17:01;;;;;;;7.93;4.97;;;11.10;99.90;;;;;;4878758;29;20048;-85
2022/09/02 01:19:43;;;;;;;4.05;3.75;;;11.10;99.90;;;;;;4862325;29;20475;-84
2022/09/02 01:22:17;;;;;;;7.45;4.55;;;11.10;99.90;;;;;;4854101;29;20069;-85
2022/09/02 01:24:46;;;;;;;5.03;4.70;;;11.10;99.90;;;;;;4854296;29;20076;-84
2022/09/02 01:27:19;;;;;;;4.38;4.07;;;11.10;99.90;;;;;;4876496;29;20053;-84
2022/09/02 01:29:51;;;;;;;5.90;4.90;;;11.10;99.90;;;;;;4840508;29;20057;-85
2022/09/02 01:32:21;;;;;;;6.45;5.85;;;11.10;99.90;;;;;;4845471;29;20395;-84
2022/09/02 01:34:49;;;;;;;10.48;5.68;;;11.10;99.90;;;;;;4860511;29;20049;-83
2022/09/02 01:37:18;;;;;;;4.32;3.90;;;11.10;99.90;;;;;;4859497;29;20048;-84
2022/09/02 01:39:46;;;;;;;5.53;4.93;;;11.00;99.90;;;;;;4843009;29;20041;-84
2022/09/02 01:42:14;;;;;;;14.00;4.22;;;11.00;99.90;;;;;;4844090;29;20413;-84
2022/09/02 01:44:42;;;;;;;4.78;4.35;;;11.00;99.90;;;;;;4859848;29;20045;-84
2022/09/02 01:47:12;;;;;;;4.32;4.03;;;11.00;99.90;;;;;;4859859;29;20069;-84
2022/09/02 01:49:41;;;;;;;5.38;4.88;;;11.00;99.90;;;;;;4858717;29;20056;-84
2022/09/02 01:52:10;;;;;;;5.03;4.57;;;11.00;99.90;;;;;;4844180;29;20055;-84
2022/09/02 01:54:39;;;;;;;6.15;5.65;;;11.00;99.90;;;;;;4858467;29;20568;-84
2022/09/02 01:57:07;;;;;;;4.82;4.43;;;11.10;99.90;;;;;;4843960;29;20072;-84
2022/09/02 01:59:35;;;;;;;5.75;5.35;;;11.10;99.90;;;;;;4858747;29;20252;-84
2022/09/02 02:02:04;;;;;;;4.80;4.40;;;11.00;99.90;;;;;;4860044;29;20061;-83
2022/09/02 02:04:32;;;;;;;6.50;4.65;;;11.10;99.90;;;;;;4840240;29;20053;-84
2022/09/02 02:07:03;;;;;;;4.57;4.18;;;11.10;99.90;;;;;;4826944;29;20046;-84
2022/09/02 02:09:31;;;;;;;4.25;3.95;;;11.10;99.90;;;;;;4838738;29;20412;-84
2022/09/02 02:11:59;;;;;;;4.78;4.38;;;11.10;99.90;;;;;;4840590;29;20443;-85
2022/09/02 02:14:29;;;;;;;5.75;5.20;;;11.10;99.90;;;;;;4833372;29;20395;-84
2022/09/02 02:16:57;;;;;;;5.13;4.25;;;11.10;99.90;;;;;;4862178;29;20040;-84
2022/09/02 02:19:25;;;;;;;5.22;4.80;;;11.00;99.90;;;;;;4876892;29;20048;-84
2022/09/02 02:21:53;;;;;;;5.90;4.95;;;11.00;99.90;;;;;;4862531;29;20051;-84
2022/09/02 02:24:21;;;;;;;4.43;4.13;;;11.00;99.90;;;;;;4869184;29;20056;-83
2022/09/02 02:26:49;;;;;;;5.10;4.70;;;10.90;99.90;;;;;;4843833;29;20049;-84
2022/09/02 02:29:18;;;;;;;10.13;4.82;;;11.00;99.90;;;;;;4843005;29;20053;-84
2022/09/02 02:31:48;;;;;;;5.63;5.13;;;11.00;99.90;;;;;;4843575;29;20049;-83
2022/09/02 02:34:16;;;;;;;4.93;4.43;;;11.00;99.90;;;;;;4843743;29;20048;-83
2022/09/02 02:36:45;;;;;;;4.50;4.20;;;11.00;99.90;;;;;;4858689;29;20052;-86
2022/09/02 02:39:13;;;;;;;4.57;4.28;;;11.00;99.90;;;;;;4857301;29;20841;-86
2022/09/02 02:41:43;;;;;;;5.70;4.97;;;11.00;99.90;;;;;;4839092;29;20404;-85
2022/09/02 02:44:12;;;;;;;8.52;5.60;;;10.90;99.90;;;;;;4840010;29;20101;-83
2022/09/02 02:46:41;;;;;;;5.03;4.63;;;10.90;99.90;;;;;;4840890;29;20053;-85
2022/09/02 02:49:09;;;;;;;6.20;5.28;;;10.90;99.90;;;;;;4839798;29;20057;-84
2022/09/02 02:51:37;;;;;;;4.93;4.63;;;10.90;99.90;;;;;;4857450;29;20053;-84
2022/09/02 02:54:06;;;;;;;7.43;6.50;;;11.00;99.90;;;;;;4839356;29;20057;-84
2022/09/02 02:56:34;;;;;;;5.05;4.65;;;10.90;99.90;;;;;;4824825;29;20046;-83
2022/09/02 02:59:03;;;;;;;6.85;6.05;;;10.90;99.90;;;;;;4840256;29;20081;-85
2022/09/02 03:01:33;;;;;;;5.90;5.40;;;10.80;99.90;;;;;;4847943;29;20046;-84
2022/09/02 03:04:01;;;;;;;5.68;5.18;;;10.60;99.90;;;;;;4824734;29;20040;-84
2022/09/02 03:06:28;;;;;;;7.28;6.03;;;10.70;99.90;;;;;;4825500;29;20109;-84
2022/09/02 03:08:57;;;;;;;6.65;5.35;;;10.60;99.90;;;;;;4853693;29;20050;-84
2022/09/02 03:11:27;;;;;;;5.72;5.22;;;10.60;99.90;;;;;;4838280;29;20053;-83
2022/09/02 03:13:56;;;;;;;5.50;5.00;;;10.60;99.90;;;;;;4843658;29;20061;-84
2022/09/02 03:16:24;;;;;;;7.65;5.63;;;10.60;99.90;;;;;;4861608;29;20351;-84
2022/09/02 03:18:53;;;;;;;6.35;5.57;;;10.70;99.90;;;;;;4861178;29;20052;-84
2022/09/02 03:21:21;;;;;;;8.30;5.30;;;10.70;99.90;;;;;;4839451;29;20066;-83
2022/09/02 03:23:49;;;;;;;5.75;5.28;;;10.80;99.90;;;;;;4838581;29;20412;-83
2022/09/02 03:26:20;;;;;;;5.90;5.22;;;10.80;99.90;;;;;;4855714;29;20415;-83
2022/09/02 03:28:49;;;;;;;5.82;5.32;;;10.80;99.90;;;;;;4838922;29;20046;-84
2022/09/02 03:31:20;;;;;;;5.20;4.80;;;10.80;99.90;;;;;;4854978;29;20052;-83
2022/09/02 03:33:48;;;;;;;11.27;4.50;;;10.80;99.90;;;;;;4874914;29;20045;-83
2022/09/02 03:36:20;;;;;;;10.02;7.55;;;10.70;99.90;;;;;;4858137;29;20427;-84
2022/09/02 03:38:49;;;;;;;5.47;5.07;;;10.80;99.90;;;;;;4841677;29;20067;-84
2022/09/02 03:41:17;;;;;;;6.05;5.55;;;10.70;99.90;;;;;;4842938;29;20060;-84
2022/09/02 03:43:47;;;;;;;6.68;4.93;;;10.60;99.90;;;;;;4835214;29;20250;-84
2022/09/02 03:46:16;;;;;;;5.75;5.25;;;10.60;99.90;;;;;;4842364;29;20061;-83
2022/09/02 03:48:45;;;;;;;6.18;5.57;;;10.60;99.90;;;;;;4858536;29;20052;-84
2022/09/02 03:51:13;;;;;;;6.68;5.13;;;10.70;99.90;;;;;;4859125;29;20237;-84
2022/09/02 03:53:41;;;;;;;21.67;7.57;;;10.60;99.90;;;;;;4866964;29;20048;-84
2022/09/02 03:56:11;;;;;;;7.07;6.47;;;10.60;99.90;;;;;;4880216;29;20067;-84
2022/09/02 03:58:45;;;;;;;6.97;5.72;;;10.50;99.90;;;;;;4879769;29;20048;-84
2022/09/02 04:01:19;;;;;;;8.10;6.53;;;10.50;99.90;;;;;;4849239;29;20502;-84
2022/09/02 04:03:48;;;;;;;7.50;6.82;;;10.50;99.90;;;;;;4858538;29;20061;-84
2022/09/02 04:06:19;;;;;;;9.10;8.18;;;10.50;99.90;;;;;;4878563;29;20391;-83
2022/09/02 04:08:48;;;;;;;6.97;6.07;;;10.40;99.90;;;;;;4840970;29;20049;-84
2022/09/02 04:11:20;;;;;;;6.30;5.50;;;10.50;99.90;;;;;;4843321;29;20061;-82
2022/09/02 04:13:51;;;;;;;7.10;6.47;;;10.50;99.90;;;;;;4871698;29;20049;-82
2022/09/02 04:16:27;;;;;;;9.50;6.63;;;10.50;99.90;;;;;;4860948;29;20056;-82
2022/09/02 04:19:02;;;;;;;6.43;5.93;;;10.50;99.90;;;;;;4850476;29;20482;-82
2022/09/02 04:21:36;;;;;;;6.35;5.70;;;10.40;99.90;;;;;;4864085;29;20510;-81
2022/09/02 04:24:05;;;;;;;6.47;5.60;;;10.30;99.90;;;;;;4844546;29;20120;-82
2022/09/02 04:26:33;;;;;;;7.00;6.45;;;10.30;99.90;;;;;;4843246;29;20056;-81
2022/09/02 04:29:02;;;;;;;6.75;6.15;;;10.30;99.90;;;;;;4826794;29;20065;-82
2022/09/02 04:31:35;;;;;;;6.32;5.78;;;10.30;99.90;;;;;;4826717;29;20582;-82
2022/09/02 04:34:05;;;;;;;6.82;6.28;;;10.20;99.90;;;;;;4854716;29;20049;-84
2022/09/02 04:36:34;;;;;;;6.43;5.82;;;10.20;99.90;;;;;;4860681;29;20057;-83
2022/09/02 04:39:07;;;;;;;8.10;6.80;;;10.20;99.90;;;;;;4856534;29;20056;-83
2022/09/02 04:41:36;;;;;;;7.20;6.10;;;10.30;99.90;;;;;;4860879;29;20064;-84
2022/09/02 04:44:10;;;;;;;6.53;5.93;;;10.30;99.90;;;;;;4860896;29;20052;-84
2022/09/02 04:46:40;;;;;;;6.53;6.00;;;10.20;99.90;;;;;;4846448;29;20041;-84
2022/09/02 04:49:13;;;;;;;8.57;7.25;;;10.20;99.90;;;;;;4845220;29;20404;-84
2022/09/02 04:51:43;;;;;;;6.88;6.28;;;10.20;99.90;;;;;;4856990;29;20053;-83
2022/09/02 04:54:10;;;;;;;7.13;6.28;;;10.20;99.90;;;;;;4871680;29;20075;-83
2022/09/02 04:56:41;;;;;;;6.15;5.55;;;10.20;99.90;;;;;;4879250;29;20048;-83
2022/09/02 04:59:09;;;;;;;6.68;6.03;;;10.20;99.90;;;;;;4863383;29;20060;-85
2022/09/02 05:01:42;;;;;;;11.27;6.30;;;10.30;99.90;;;;;;4848476;29;20037;-83
2022/09/02 05:04:16;;;;;;;11.02;7.07;;;10.30;99.90;;;;;;4875603;29;20068;-83
2022/09/02 05:06:48;;;;;;;5.80;5.30;;;10.30;99.90;;;;;;4860621;29;20450;-83
2022/09/02 05:09:19;;;;;;;7.97;6.17;;;10.30;99.90;;;;;;4858915;29;20407;-83
2022/09/02 05:11:57;;;;;;;6.55;6.03;;;10.30;99.90;;;;;;4875633;29;20285;-83
2022/09/02 05:14:31;;;;;;;9.80;6.50;;;10.30;99.90;;;;;;4876258;29;20055;-83
2022/09/02 05:17:03;;;;;;;7.13;6.28;;;10.40;99.90;;;;;;4875768;29;20057;-83
2022/09/02 05:19:37;;;;;;;5.93;5.32;;;10.40;99.90;;;;;;4874809;29;20506;-84
2022/09/02 05:22:05;;;;;;;5.95;5.20;;;10.40;99.90;;;;;;4876026;29;20127;-84
2022/09/02 05:24:36;;;;;;;6.60;5.95;;;10.40;99.90;;;;;;4858408;29;20041;-83
2022/09/02 05:27:08;;;;;;;5.47;5.07;;;10.50;99.90;;;;;;4861041;29;20054;-83
2022/09/02 05:29:37;;;;;;;7.35;6.75;;;10.50;99.90;;;;;;4855248;29;20052;-83
2022/09/02 05:32:07;;;;;;;9.23;6.28;;;10.50;99.90;;;;;;4823434;29;20065;-83
2022/09/02 05:34:37;;;;;;;;;;;10.60;99.90;;;;;;4824071;29;20405;-84
2022/09/02 05:37:04;;;;;;;7.20;5.55;;;10.50;99.90;;;;;;4853494;29;19928;-83
2022/09/02 05:39:34;;;;;;;6.15;5.30;;;10.60;99.90;;;;;;4836153;29;20053;-83
2022/09/02 05:42:03;;;;;;;5.95;5.50;;;10.60;99.90;;;;;;4838692;29;20135;-83
2022/09/02 05:44:33;;;;;;;5.72;5.20;;;10.70;99.90;;;;;;4823004;29;20042;-82
2022/09/02 05:47:02;;;;;;;6.63;5.63;;;10.80;99.90;;;;;;4838304;29;20057;-83
2022/09/02 05:49:30;;;;;;;6.22;5.82;;;10.90;99.90;;;;;;4836983;29;20054;-83
2022/09/02 05:52:11;;;;;;;7.10;5.57;;;10.90;99.90;;;;;;4837904;29;20078;-83
2022/09/02 05:54:51;;;;;;;5.78;5.28;;;11.00;99.90;;;;;;4874897;29;20060;-83
2022/09/02 05:57:21;;;;;;;6.05;5.55;;;11.10;99.90;;;;;;4859497;29;20045;-84
2022/09/02 05:59:56;;;;;;;6.38;5.78;;;11.30;99.90;;;;;;4858708;29;20064;-83
2022/09/02 06:02:41;;;;;;;4.78;4.30;;;11.40;99.90;;;;;;4875314;29;20057;-83
2022/09/02 06:05:16;;;;;;;5.20;4.70;;;11.60;99.90;;;;;;4860272;29;20057;-84
2022/09/02 06:07:49;;;;;;;4.72;4.32;;;11.70;99.90;;;;;;4853837;29;20056;-83
2022/09/02 06:10:20;;;;;;;5.22;4.75;;;11.80;99.90;;;;;;4822763;29;20054;-83
2022/09/02 06:12:49;;;;;;;5.15;4.68;;;12.00;99.90;;;;;;4822904;29;20325;-84
2022/09/02 06:15:20;;;;;;;5.10;4.45;;;12.20;99.90;;;;;;4837818;29;20405;-82
2022/09/02 06:17:48;;;;;;;5.38;4.88;;;12.40;99.90;;;;;;4822439;29;20054;-83
2022/09/02 06:20:16;;;;;;;5.07;4.57;;;12.60;99.90;;;;;;4822257;29;20042;-83
2022/09/02 06:22:47;;;;;;;5.38;4.95;;;12.60;99.90;;;;;;4822114;29;20488;-85
2022/09/02 06:25:15;;;;;;;5.15;4.00;;;12.90;99.90;;;;;;4838019;29;20433;-84
2022/09/02 06:27:43;;;;;;;4.63;4.22;;;13.10;99.90;;;;;;4837407;29;20061;-84
2022/09/02 06:30:12;;;;;;;5.72;4.65;;;13.10;99.90;;;;;;4837604;29;20046;-83
2022/09/02 06:32:40;;;;;;;4.50;4.13;;;13.30;99.90;;;;;;4822265;29;20050;-84
2022/09/02 06:35:10;;;;;;;4.68;4.10;;;13.50;99.90;;;;;;4825948;29;20065;-84
2022/09/02 06:37:40;;;;;;;4.30;3.83;;;13.60;99.90;;;;;;4844910;29;20057;-84
2022/09/02 06:40:10;;;;;;;4.13;3.72;;;13.80;99.90;;;;;;4840199;29;20049;-83
2022/09/02 06:42:40;;;;;;;4.70;4.35;;;13.90;99.90;;;;;;4856226;29;20077;-83
2022/09/02 06:45:25;;;;;;;4.47;4.07;;;14.10;99.90;;;;;;4840436;29;20060;-83
2022/09/02 06:47:55;;;;;;;4.18;3.88;;;14.20;99.90;;;;;;4839588;29;20054;-85
2022/09/02 06:50:23;;;;;;;5.18;3.80;;;14.20;99.90;;;;;;4840523;29;20060;-85
2022/09/02 06:52:54;;;;;;;3.70;3.40;;;14.00;99.90;;;;;;4841531;29;20045;-83
2022/09/02 06:55:22;;;;;;;3.50;3.22;;;14.10;99.90;;;;;;4859691;29;20057;-84
2022/09/02 06:57:51;;;;;;;4.10;3.70;;;14.20;99.90;;;;;;4858395;29;20407;-84
2022/09/02 07:00:19;;;;;;;3.67;3.40;;;14.40;99.90;;;;;;4860179;29;20500;-87
2022/09/02 07:05:08;;;;;;;4.20;3.90;;;14.60;99.90;;;;;;4826087;29;20046;-84
2022/09/02 07:05:39;;;;;;;4.82;4.43;;;14.30;99.90;;;;;;4856092;29;20515;-83
2022/09/02 07:08:07;;;;;;;4.03;3.67;;;14.40;99.90;;;;;;4838548;29;20080;-87
2022/09/02 07:10:40;;;;;;;2.97;2.78;;;14.50;99.90;;;;;;4851955;29;20041;-81
2022/09/02 07:13:15;;;;;;;8.32;4.70;;;14.50;99.90;;;;;;4837768;29;20046;-88
2022/09/02 07:15:49;;;;;;;4.53;4.10;;;14.40;99.90;;;;;;4836875;29;20407;-88
2022/09/02 07:18:29;;;;;;;4.43;3.63;;;14.40;99.90;;;;;;4839255;29;20057;-88
2022/09/02 07:21:03;;;;;;;5.03;4.60;;;14.50;99.90;;;;;;4831186;29;20045;-88
2022/09/02 07:23:32;;;;;;;3.70;3.40;;;14.70;99.90;;;;;;4837318;29;20504;-89
2022/09/02 07:26:25;;;;;;;6.22;3.47;;;14.80;99.90;;;;;;4827119;29;20447;-87
2022/09/02 07:29:23;;;;;;;5.60;3.20;;;14.80;99.90;;;;;;4845553;29;20052;-88
2022/09/02 07:32:03;;;;;;;3.88;3.58;;;14.90;99.90;;;;;;4837753;29;20041;-91
2022/09/02 07:34:34;;;;;;;6.60;3.50;;;15.00;99.90;;;;;;4827670;29;20241;-88
2022/09/02 07:37:08;;;;;;;7.40;3.20;;;14.90;99.90;;;;;;4842894;29;20080;-90
2022/09/02 07:39:39;;;;;;;3.65;3.30;;;15.10;99.90;;;;;;4839473;29;20057;-87
2022/09/02 07:42:14;;;;;;;3.45;3.25;;;15.10;99.90;;;;;;4842227;29;20492;-87
2022/09/02 07:45:06;;;;;;;4.90;3.63;;;15.10;99.90;;;;;;4839336;29;20069;-88
2022/09/02 07:47:36;;;;;;;;;;;15.10;99.90;;;;;;4819029;29;20064;-87
2022/09/02 07:50:06;;;;;;;3.85;3.30;;;15.20;99.90;;;;;;4858014;29;19924;-89
2022/09/02 07:52:49;;;;;;;3.15;2.83;;;15.40;99.90;;;;;;4857889;29;20064;-88
2022/09/02 07:55:31;;;;;;;4.32;3.50;;;15.50;99.90;;;;;;4860742;29;20495;-91
2022/09/02 07:58:33;;;;;;;3.80;3.47;;;15.60;99.90;;;;;;4856999;29;20511;-89
2022/09/02 08:01:09;;;;;;;3.35;3.05;;;15.70;99.90;;;;;;4860465;29;20570;-88
2022/09/02 08:03:43;;;;;;;4.78;3.13;;;15.50;99.90;;;;;;4860647;29;20064;-88
2022/09/02 08:06:27;;;;;;;5.50;4.55;;;15.60;99.90;;;;;;4858001;29;20065;-88
2022/09/02 08:09:14;;;;;;;2.67;2.47;;;15.70;99.90;;;;;;4833588;29;20492;-89
2022/09/02 08:11:46;;;;;;;5.65;3.22;;;15.80;99.90;;;;;;4805929;29;20058;-87
2022/09/02 08:14:19;;;;;;;2.60;2.40;;;16.00;99.90;;;;;;4806448;29;20493;-87
2022/09/02 08:16:50;;;;;;;2.72;2.53;;;16.00;99.90;;;;;;4815162;29;20050;-89
2022/09/02 08:19:20;;;;;;;3.85;3.47;;;16.10;99.90;;;;;;4826377;29;20053;-90
2022/09/02 08:21:48;;;;;;;2.58;2.38;;;16.00;99.90;;;;;;4821838;29;20046;-88
2022/09/02 08:24:19;;;;;;;2.72;2.55;;;16.10;99.90;;;;;;4818894;29;20050;-90
2022/09/02 08:26:47;;;;;;;2.97;2.72;;;16.20;99.90;;;;;;4820391;29;20065;-87
2022/09/02 08:29:24;;;;;;;2.88;2.67;;;16.20;99.90;;;;;;4819653;29;20523;-88
2022/09/02 08:31:56;;;;;;;3.30;2.63;;;16.30;99.90;;;;;;4821791;29;20046;-87
2022/09/02 08:34:27;;;;;;;3.17;2.33;;;16.30;99.90;;;;;;4820354;29;20050;-89
2022/09/02 08:36:56;;;;;;;2.20;2.00;;;16.30;99.90;;;;;;4821291;29;20046;-88
2022/09/02 08:39:30;;;;;;;2.23;2.13;;;16.20;99.90;;;;;;4817663;29;20054;-91
2022/09/02 08:41:58;;;;;;;2.60;2.50;;;16.10;99.90;;;;;;4832056;29;20509;-87
2022/09/02 08:44:55;;;;;;;2.83;1.95;;;16.20;99.90;;;;;;4801821;29;20046;-89
2022/09/02 08:47:34;;;;;;;2.58;2.35;;;16.40;99.90;;;;;;4819964;29;20081;-88
2022/09/02 08:50:10;;;;;;;2.50;2.30;;;16.50;99.90;;;;;;4833503;29;20054;-86
2022/09/02 08:52:56;;;;;;;3.10;2.25;;;16.70;99.90;;;;;;4837185;29;20050;-88
2022/09/02 08:55:32;;;;;;;2.53;2.35;;;16.70;99.90;;;;;;4858676;29;20057;-87
2022/09/02 08:58:07;;;;;;;2.25;2.05;;;16.70;99.90;;;;;;4870902;29;20057;-84
2022/09/02 09:05:49;;;;;;;2.28;1.67;;;17.10;99.90;;;;;;4857342;29;20050;-84
2022/09/02 09:09:13;;;;;;;2.15;1.42;;;17.10;99.90;;;;;;4823044;29;20132;-84
2022/09/02 09:16:41;;;;;;;1.98;1.88;;;17.00;99.90;;;;;;4859520;29;20037;-85
2022/09/02 09:24:01;;;;;;;2.05;1.80;;;16.90;99.90;;;;;;4871812;29;20057;-87
2022/09/02 09:26:39;;;;;;;1.85;1.75;;;17.00;99.90;;;;;;4859339;29;20510;-83
2022/09/02 09:29:49;;;;;;;2.97;1.88;;;17.00;99.90;;;;;;4860044;29;20398;-84
2022/09/02 09:33:04;;;;;;;1.45;1.13;;;17.20;99.90;;;;;;4876273;29;20427;-86
2022/09/02 09:40:36;;;;;;;1.73;1.50;;;17.50;99.90;;;;;;4779249;29;20059;-85
2022/09/02 09:43:11;;;;;;;1.45;1.38;;;17.50;99.90;;;;;;4850835;29;20083;-86
2022/09/02 09:45:50;;;;;;;1.27;1.23;;;17.50;99.90;;;;;;4875254;29;20411;-85
2022/09/02 09:48:28;;;;;;;1.30;1.20;;;17.70;99.90;;;;;;4873700;29;20076;-86
2022/09/02 09:51:14;;;;;;;1.70;1.52;;;17.70;99.90;;;;;;4875240;29;20506;-86
2022/09/02 09:59:41;;;;;;;2.25;1.55;;;17.90;99.90;;;;;;4817022;29;20087;-83
2022/09/02 10:02:27;;;;;;;1.42;1.33;;;17.90;99.90;;;;;;4787426;29;20530;-86
2022/09/02 10:11:19;;;;;;;1.55;1.10;;;17.90;99.90;;;;;;4797317;29;20054;-85
2022/09/02 10:19:17;;;;;;;1.48;1.38;;;18.00;99.90;;;;;;4750628;29;20074;-86
2022/09/02 10:21:54;;;;;;;3.70;1.42;;;18.00;99.90;;;;;;4838689;29;20165;-86
2022/09/02 10:24:54;;;;;;;1.17;1.10;;;17.90;99.90;;;;;;4811599;29;20050;-83
2022/09/02 10:28:10;;;;;;;3.22;1.63;;;18.10;99.90;;;;;;4845246;29;20049;-84
2022/09/02 10:31:31;;;;;;;2.25;1.40;;;18.00;99.90;;;;;;4823489;29;20046;-87
2022/09/02 10:34:56;;;;;;;1.10;1.10;;;18.20;99.90;;;;;;4829840;29;20057;-84
2022/09/02 10:38:31;;;;;;;2.80;1.35;;;18.20;99.90;;;;;;4884296;23;20539;-86
2022/09/02 10:41:49;;;;;;;2.28;1.60;;;18.40;99.90;;;;;;4856969;29;20057;-84
2022/09/02 10:52:26;;;;;;;1.42;1.33;;;18.60;99.90;;;;;;4871477;29;20057;-88
2022/09/02 10:55:44;;;;;;;2.25;1.08;;;18.70;99.90;;;;;;4832574;29;20061;-88
2022/09/02 11:00:21;;;;;;;2.45;1.70;;;18.70;99.90;;;;;;5063707;23;20059;-89
2022/09/02 11:04:40;;;;;;;1.35;1.25;;;18.70;99.90;;;;;;4879943;29;20044;-87
2022/09/02 11:08:14;;;;;;;2.17;1.50;;;18.60;99.90;;;;;;4844302;29;20418;-86
2022/09/02 11:11:03;;;;;;;3.72;1.70;;;18.70;99.90;;;;;;4840069;29;20041;-87
2022/09/02 11:14:21;;;;;;;1.80;1.70;;;18.70;99.90;;;;;;4832632;29;20041;-87
2022/09/02 11:17:25;;;;;;;3.80;1.33;;;18.80;99.90;;;;;;4844636;29;20068;-90
2022/09/02 11:20:15;;;;;;;1.48;1.38;;;18.80;99.90;;;;;;4844994;29;20061;-88
2022/09/02 11:23:46;;;;;;;3.47;1.40;;;18.80;99.90;;;;;;4852296;29;20476;-88
2022/09/02 11:26:34;;;;;;;1.23;1.13;;;18.70;99.90;;;;;;4822341;29;20543;-84
2022/09/02 11:30:09;;;;;;;1.35;1.00;;;18.70;99.90;;;;;;4841472;29;20117;-84
2022/09/02 11:33:35;;;;;;;1.48;1.38;;;18.90;99.90;;;;;;4826290;29;20049;-83
2022/09/02 11:36:42;;;;;;;1.65;1.55;;;18.70;99.90;;;;;;4824116;29;20042;-83
2022/09/02 11:40:52;;;;;;;1.75;1.65;;;18.70;99.90;;;;;;4802706;29;20062;-84
2022/09/02 11:45:08;;;;;;;;;;;;;;;;;;;;;
2022/09/02 11:53:00;;;;;;;2.40;1.30;;;18.80;99.90;;;;;;4819591;29;20056;-84
2022/09/02 12:04:05;;;;;;;2.67;1.30;;;18.90;99.90;;;;;;4848441;29;20042;-85
2022/09/02 12:13:01;;;;;;;3.28;1.42;;;19.00;99.90;;;;;;4801895;29;20062;-85
2022/09/02 12:21:34;;;;;;;1.40;1.30;;;18.90;99.90;;;;;;4786887;29;20055;-84
2022/09/02 12:29:19;;;;;;;2.55;1.27;;;19.20;99.90;;;;;;4807275;29;20049;-82
2022/09/02 12:32:51;;;;;;;1.45;1.45;;;19.20;99.90;;;;;;4804905;29;20058;-84
2022/09/02 12:41:19;;;;;;;1.65;0.90;;;19.10;99.90;;;;;;4801623;29;20151;-85
2022/09/02 12:44:38;;;;;;;1.65;1.15;;;19.10;99.90;;;;;;4837205;29;20050;-85
2022/09/02 12:53:25;;;;;;;7.25;2.05;;;19.20;99.90;;;;;;4843796;29;20086;-83
2022/09/02 13:07:13;;;;;;;2.15;1.00;;;19.30;99.90;;;;;;4784882;29;20069;-84
2022/09/02 13:39:39;;;;;;;2.47;2.28;;;19.60;99.90;;;;;;2550619;23;19928;-85
2022/09/02 17:36:20;;;;;;;1.50;1.40;;;17.60;99.90;;;;;;5100111;23;20060;-83
2022/09/02 17:38:48;;;;;;;1.00;1.00;;;17.30;99.90;;;;;;4857860;29;20056;-83
2022/09/02 17:44:03;;;;;;;1.58;1.38;;;16.70;99.90;;;;;;4876125;29;20048;-83
2022/09/02 17:46:31;;;;;;;1.23;1.20;;;16.50;99.90;;;;;;4844824;29;20189;-83
2022/09/02 17:48:58;;;;;;;1.33;1.23;;;16.30;99.90;;;;;;4875206;29;20056;-83
2022/09/02 17:51:44;;;;;;;1.95;1.40;;;16.20;99.90;;;;;;4861907;29;20419;-84
2022/09/02 17:54:13;;;;;;;1.20;1.10;;;15.90;99.90;;;;;;4871398;29;20059;-83
2022/09/02 17:56:53;;;;;;;1.42;1.33;;;15.60;99.90;;;;;;4877619;29;20055;-83
2022/09/02 17:59:49;;;;;;;1.00;1.00;;;15.50;99.90;;;;;;4877564;29;20059;-82
2022/09/02 18:02:36;;;;;;;1.45;1.35;;;15.30;99.90;;;;;;4863063;29;20048;-83
2022/09/02 18:05:35;;;;;;;1.05;0.98;;;15.20;99.90;;;;;;4877613;29;20048;-83
2022/09/02 18:08:21;;;;;;;1.08;1.05;;;15.00;99.90;;;;;;4884869;29;20060;-82
2022/09/02 18:10:52;;;;;;;1.98;1.50;;;14.90;99.90;;;;;;4857190;29;20049;-82
2022/09/02 18:13:45;;;;;;;1.63;1.27;;;14.90;99.90;;;;;;4857081;29;20046;-82
2022/09/02 18:16:48;;;;;;;2.40;1.48;;;14.70;99.90;;;;;;4840972;29;20404;-82
2022/09/02 18:19:37;;;;;;;1.20;1.10;;;14.60;99.90;;;;;;4839838;29;20087;-83
2022/09/02 18:22:33;;;;;;;1.98;1.45;;;14.40;99.90;;;;;;4839884;29;20045;-88
2022/09/02 18:25:41;;;;;;;1.75;1.65;;;14.30;99.90;;;;;;4855917;29;20050;-87
2022/09/02 18:28:37;;;;;;;1.30;1.20;;;14.30;99.90;;;;;;4856540;29;20053;-85
2022/09/02 18:31:17;;;;;;;11.27;3.22;;;14.30;99.90;;;;;;4840597;29;20498;-84
2022/09/02 18:34:04;;;;;;;2.67;1.65;;;14.30;99.90;;;;;;4855407;29;20042;-84
2022/09/02 18:36:55;;;;;;;1.20;1.08;;;14.20;99.90;;;;;;4855906;29;20527;-84
2022/09/02 18:39:56;;;;;;;1.23;1.13;;;14.20;99.90;;;;;;4832353;29;20057;-84
2022/09/02 18:42:47;;;;;;;1.83;1.73;;;14.20;99.90;;;;;;4812432;29;20407;-85
2022/09/02 18:45:27;;;;;;;1.92;1.20;;;14.10;99.90;;;;;;4856293;29;20057;-81
2022/09/02 18:48:04;;;;;;;1.08;1.08;;;14.10;99.90;;;;;;4825034;29;20054;-81
2022/09/02 18:50:55;;;;;;;3.50;1.23;;;14.10;99.90;;;;;;4826083;29;20416;-82
2022/09/02 18:53:28;;;;;;;0.85;0.85;;;14.00;99.90;;;;;;4822093;29;20045;-84
2022/09/02 18:56:03;;;;;;;2.33;2.22;;;14.00;99.90;;;;;;4846962;29;20044;-83
2022/09/02 18:58:50;;;;;;;1.17;1.17;;;13.90;99.90;;;;;;4862256;29;20061;-84
2022/09/02 19:01:29;;;;;;;1.48;1.38;;;13.90;99.90;;;;;;4845898;29;20060;-85
2022/09/02 19:03:58;;;;;;;1.52;1.42;;;13.90;99.90;;;;;;4893651;29;20482;-84
2022/09/02 19:06:32;;;;;;;2.15;1.35;;;13.80;99.90;;;;;;4878252;29;20053;-84
2022/09/02 19:09:04;;;;;;;2.28;1.98;;;13.80;99.90;;;;;;4844830;29;20049;-84
2022/09/02 19:11:34;;;;;;;1.38;1.30;;;13.60;99.90;;;;;;4846565;29;20056;-83
2022/09/02 19:14:27;;;;;;;2.78;1.77;;;13.40;99.90;;;;;;4877721;29;20053;-83
2022/09/02 19:16:57;;;;;;;1.40;1.30;;;13.30;99.90;;;;;;4862111;29;20048;-84
2022/09/02 19:19:28;;;;;;;2.65;1.30;;;13.30;99.90;;;;;;4846319;29;20052;-83
2022/09/02 19:22:02;;;;;;;2.40;1.65;;;13.30;99.90;;;;;;4862979;29;20640;-84
2022/09/02 19:24:41;;;;;;;4.32;1.40;;;13.20;99.90;;;;;;4864255;29;20049;-83
2022/09/02 19:27:13;;;;;;;1.80;1.67;;;13.10;99.90;;;;;;4865810;29;20422;-84
2022/09/02 19:29:46;;;;;;;2.33;2.03;;;13.00;99.90;;;;;;4859755;29;20045;-83
2022/09/02 19:32:18;;;;;;;1.85;1.70;;;12.90;99.90;;;;;;4813509;29;20037;-84
2022/09/02 19:34:46;;;;;;;2.17;1.67;;;12.70;99.90;;;;;;4828637;29;20475;-84
2022/09/02 19:37:13;;;;;;;1.90;1.45;;;12.60;99.90;;;;;;4843714;29;20060;-84
2022/09/02 19:39:41;;;;;;;1.10;1.10;;;12.60;99.90;;;;;;4826801;29;20060;-84
2022/09/02 19:42:09;;;;;;;3.53;1.63;;;12.60;99.90;;;;;;4843894;29;20058;-84
2022/09/02 19:44:38;;;;;;;2.90;1.48;;;12.60;99.90;;;;;;4828018;29;20053;-84
2022/09/02 19:47:10;;;;;;;2.03;1.50;;;12.60;99.90;;;;;;4828608;29;20503;-84
2022/09/02 19:49:58;;;;;;;;;;;12.60;99.90;;;;;;4843062;29;20060;-84